sensor_id;sensor_type;location;lat;lon;timestamp;P1;durP1;ratioP1;P2;durP2;ratioP2
54795;SDS011;40693;43.884;20.340;2023-02-23T00:02:02;48.38;;;29.08;;
54795;SDS011;40693;43.884;20.340;2023-02-23T00:04:30;52.05;;;29.95;;
54795;SDS011;40693;43.884;20.340;2023-02-23T00:06:56;51.25;;;29.85;;
54795;SDS011;40693;43.884;20.340;2023-02-23T00:09:22;52.85;;;30.40;;
54795;SDS011;40693;43.884;20.340;2023-02-23T00:11:55;50.55;;;30.33;;
54795;SDS011;40693;43.884;20.340;2023-02-23T00:14:27;51.78;;;30.60;;
54795;SDS011;40693;43.884;20.340;2023-02-23T00:16:55;48.50;;;30.15;;
54795;SDS011;40693;43.884;20.340;2023-02-23T00:19:22;58.17;;;33.95;;
54795;SDS011;40693;43.884;20.340;2023-02-23T00:21:48;58.60;;;36.25;;
54795;SDS011;40693;43.884;20.340;2023-02-23T00:24:22;62.75;;;37.40;;
54795;SDS011;40693;43.884;20.340;2023-02-23T00:26:51;62.85;;;35.42;;
54795;SDS011;40693;43.884;20.340;2023-02-23T00:29:19;63.05;;;36.53;;
54795;SDS011;40693;43.884;20.340;2023-02-23T00:31:47;67.13;;;38.53;;
54795;SDS011;40693;43.884;20.340;2023-02-23T00:34:14;67.72;;;40.55;;
54795;SDS011;40693;43.884;20.340;2023-02-23T00:36:45;64.78;;;37.70;;
54795;SDS011;40693;43.884;20.340;2023-02-23T00:39:16;62.40;;;36.17;;
54795;SDS011;40693;43.884;20.340;2023-02-23T00:41:50;63.00;;;37.47;;
54795;SDS011;40693;43.884;20.340;2023-02-23T00:44:17;60.20;;;36.15;;
54795;SDS011;40693;43.884;20.340;2023-02-23T00:46:44;64.50;;;37.75;;
54795;SDS011;40693;43.884;20.340;2023-02-23T00:49:12;68.30;;;38.75;;
54795;SDS011;40693;43.884;20.340;2023-02-23T00:51:39;81.13;;;47.65;;
54795;SDS011;40693;43.884;20.340;2023-02-23T00:54:05;102.22;;;61.03;;
54795;SDS011;40693;43.884;20.340;2023-02-23T00:56:32;108.80;;;58.25;;
54795;SDS011;40693;43.884;20.340;2023-02-23T00:58:58;117.20;;;61.10;;
54795;SDS011;40693;43.884;20.340;2023-02-23T01:01:23;113.70;;;63.10;;
54795;SDS011;40693;43.884;20.340;2023-02-23T01:03:50;96.95;;;54.15;;
54795;SDS011;40693;43.884;20.340;2023-02-23T01:06:17;80.68;;;46.45;;
54795;SDS011;40693;43.884;20.340;2023-02-23T01:08:45;84.10;;;49.42;;
54795;SDS011;40693;43.884;20.340;2023-02-23T01:11:23;73.88;;;45.10;;
54795;SDS011;40693;43.884;20.340;2023-02-23T01:14:05;76.00;;;43.17;;
54795;SDS011;40693;43.884;20.340;2023-02-23T01:16:32;75.57;;;41.83;;
54795;SDS011;40693;43.884;20.340;2023-02-23T01:19:00;65.53;;;39.10;;
54795;SDS011;40693;43.884;20.340;2023-02-23T01:23:57;60.65;;;36.78;;
54795;SDS011;40693;43.884;20.340;2023-02-23T01:26:24;55.85;;;32.70;;
54795;SDS011;40693;43.884;20.340;2023-02-23T01:29:00;45.22;;;32.03;;
54795;SDS011;40693;43.884;20.340;2023-02-23T01:31:35;57.78;;;36.22;;
54795;SDS011;40693;43.884;20.340;2023-02-23T01:34:04;80.22;;;47.45;;
54795;SDS011;40693;43.884;20.340;2023-02-23T01:36:34;85.53;;;51.35;;
54795;SDS011;40693;43.884;20.340;2023-02-23T01:39:06;78.20;;;48.10;;
54795;SDS011;40693;43.884;20.340;2023-02-23T01:41:36;74.18;;;43.20;;
54795;SDS011;40693;43.884;20.340;2023-02-23T01:44:04;76.30;;;46.33;;
54795;SDS011;40693;43.884;20.340;2023-02-23T01:46:37;79.18;;;44.92;;
54795;SDS011;40693;43.884;20.340;2023-02-23T01:49:10;75.50;;;48.22;;
54795;SDS011;40693;43.884;20.340;2023-02-23T01:54:38;83.55;;;50.08;;
54795;SDS011;40693;43.884;20.340;2023-02-23T01:57:18;84.68;;;50.72;;
54795;SDS011;40693;43.884;20.340;2023-02-23T01:59:47;81.28;;;47.78;;
54795;SDS011;40693;43.884;20.340;2023-02-23T02:02:19;75.63;;;44.30;;
54795;SDS011;40693;43.884;20.340;2023-02-23T02:04:47;87.38;;;51.60;;
54795;SDS011;40693;43.884;20.340;2023-02-23T02:07:23;97.85;;;59.72;;
54795;SDS011;40693;43.884;20.340;2023-02-23T02:09:52;107.78;;;68.00;;
54795;SDS011;40693;43.884;20.340;2023-02-23T02:12:36;95.50;;;59.20;;
54795;SDS011;40693;43.884;20.340;2023-02-23T02:15:22;89.40;;;55.72;;
54795;SDS011;40693;43.884;20.340;2023-02-23T02:18:10;83.22;;;52.25;;
54795;SDS011;40693;43.884;20.340;2023-02-23T02:41:58;61.97;;;36.25;;
54795;SDS011;40693;43.884;20.340;2023-02-23T02:44:34;60.28;;;39.70;;
54795;SDS011;40693;43.884;20.340;2023-02-23T02:47:34;64.57;;;38.85;;
54795;SDS011;40693;43.884;20.340;2023-02-23T02:50:13;66.88;;;39.63;;
54795;SDS011;40693;43.884;20.340;2023-02-23T02:52:58;57.63;;;36.55;;
54795;SDS011;40693;43.884;20.340;2023-02-23T02:58:01;57.85;;;36.15;;
54795;SDS011;40693;43.884;20.340;2023-02-23T03:00:38;55.63;;;35.42;;
54795;SDS011;40693;43.884;20.340;2023-02-23T03:03:28;54.40;;;34.10;;
54795;SDS011;40693;43.884;20.340;2023-02-23T03:06:13;59.70;;;38.53;;
54795;SDS011;40693;43.884;20.340;2023-02-23T03:09:07;58.97;;;38.35;;
54795;SDS011;40693;43.884;20.340;2023-02-23T03:22:20;83.72;;;48.58;;
54795;SDS011;40693;43.884;20.340;2023-02-23T03:25:25;74.65;;;45.10;;
54795;SDS011;40693;43.884;20.340;2023-02-23T03:28:17;75.72;;;43.67;;
54795;SDS011;40693;43.884;20.340;2023-02-23T03:34:36;77.53;;;44.55;;
54795;SDS011;40693;43.884;20.340;2023-02-23T03:37:37;67.88;;;36.28;;
54795;SDS011;40693;43.884;20.340;2023-02-23T03:40:28;50.40;;;29.35;;
54795;SDS011;40693;43.884;20.340;2023-02-23T03:43:24;47.38;;;30.63;;
54795;SDS011;40693;43.884;20.340;2023-02-23T03:46:15;46.95;;;27.70;;
54795;SDS011;40693;43.884;20.340;2023-02-23T03:49:02;44.33;;;28.25;;
54795;SDS011;40693;43.884;20.340;2023-02-23T03:51:50;44.80;;;27.63;;
54795;SDS011;40693;43.884;20.340;2023-02-23T03:55:41;39.88;;;25.50;;
54795;SDS011;40693;43.884;20.340;2023-02-23T03:58:14;46.58;;;28.77;;
54795;SDS011;40693;43.884;20.340;2023-02-23T04:01:02;40.80;;;26.15;;
54795;SDS011;40693;43.884;20.340;2023-02-23T04:03:57;44.35;;;24.63;;
54795;SDS011;40693;43.884;20.340;2023-02-23T04:06:48;39.95;;;24.38;;
54795;SDS011;40693;43.884;20.340;2023-02-23T04:09:35;38.65;;;24.98;;
54795;SDS011;40693;43.884;20.340;2023-02-23T04:12:25;35.92;;;23.75;;
54795;SDS011;40693;43.884;20.340;2023-02-23T04:15:33;35.05;;;23.70;;
54795;SDS011;40693;43.884;20.340;2023-02-23T04:18:11;33.70;;;23.43;;
54795;SDS011;40693;43.884;20.340;2023-02-23T04:20:41;31.60;;;21.50;;
54795;SDS011;40693;43.884;20.340;2023-02-23T04:23:07;34.85;;;21.33;;
54795;SDS011;40693;43.884;20.340;2023-02-23T04:25:33;39.83;;;22.17;;
54795;SDS011;40693;43.884;20.340;2023-02-23T04:27:59;36.10;;;23.02;;
54795;SDS011;40693;43.884;20.340;2023-02-23T04:30:27;36.95;;;24.27;;
54795;SDS011;40693;43.884;20.340;2023-02-23T04:33:13;37.17;;;23.80;;
54795;SDS011;40693;43.884;20.340;2023-02-23T04:35:40;40.40;;;24.48;;
54795;SDS011;40693;43.884;20.340;2023-02-23T04:38:14;33.05;;;20.70;;
54795;SDS011;40693;43.884;20.340;2023-02-23T04:40:44;35.35;;;23.02;;
54795;SDS011;40693;43.884;20.340;2023-02-23T04:43:16;37.28;;;21.92;;
54795;SDS011;40693;43.884;20.340;2023-02-23T04:45:43;33.80;;;22.65;;
54795;SDS011;40693;43.884;20.340;2023-02-23T04:48:11;30.10;;;21.05;;
54795;SDS011;40693;43.884;20.340;2023-02-23T04:50:37;33.15;;;20.77;;
54795;SDS011;40693;43.884;20.340;2023-02-23T04:53:06;33.38;;;21.17;;
54795;SDS011;40693;43.884;20.340;2023-02-23T04:55:32;35.47;;;22.55;;
54795;SDS011;40693;43.884;20.340;2023-02-23T04:57:58;72.97;;;37.70;;
54795;SDS011;40693;43.884;20.340;2023-02-23T05:00:25;105.00;;;71.43;;
54795;SDS011;40693;43.884;20.340;2023-02-23T05:02:57;140.18;;;88.72;;
54795;SDS011;40693;43.884;20.340;2023-02-23T05:05:23;46.05;;;27.90;;
54795;SDS011;40693;43.884;20.340;2023-02-23T05:07:49;37.90;;;26.10;;
54795;SDS011;40693;43.884;20.340;2023-02-23T05:10:15;50.72;;;30.85;;
54795;SDS011;40693;43.884;20.340;2023-02-23T05:12:44;46.35;;;29.70;;
54795;SDS011;40693;43.884;20.340;2023-02-23T05:15:13;46.67;;;30.53;;
54795;SDS011;40693;43.884;20.340;2023-02-23T05:17:41;40.17;;;27.10;;
54795;SDS011;40693;43.884;20.340;2023-02-23T05:20:08;45.83;;;27.60;;
54795;SDS011;40693;43.884;20.340;2023-02-23T05:22:36;38.67;;;24.80;;
54795;SDS011;40693;43.884;20.340;2023-02-23T05:25:08;38.42;;;25.50;;
54795;SDS011;40693;43.884;20.340;2023-02-23T05:27:40;50.90;;;34.15;;
54795;SDS011;40693;43.884;20.340;2023-02-23T05:30:11;68.82;;;40.78;;
54795;SDS011;40693;43.884;20.340;2023-02-23T05:32:40;40.35;;;27.45;;
54795;SDS011;40693;43.884;20.340;2023-02-23T05:35:08;47.95;;;32.00;;
54795;SDS011;40693;43.884;20.340;2023-02-23T05:37:34;80.45;;;48.92;;
54795;SDS011;40693;43.884;20.340;2023-02-23T05:40:00;68.45;;;42.95;;
54795;SDS011;40693;43.884;20.340;2023-02-23T05:42:35;80.93;;;52.17;;
54795;SDS011;40693;43.884;20.340;2023-02-23T05:47:54;96.03;;;58.17;;
54795;SDS011;40693;43.884;20.340;2023-02-23T05:50:20;83.97;;;54.47;;
54795;SDS011;40693;43.884;20.340;2023-02-23T05:52:49;110.93;;;68.93;;
54795;SDS011;40693;43.884;20.340;2023-02-23T05:55:15;100.70;;;64.18;;
54795;SDS011;40693;43.884;20.340;2023-02-23T06:00:37;115.75;;;68.40;;
54795;SDS011;40693;43.884;20.340;2023-02-23T06:03:03;115.50;;;69.32;;
54795;SDS011;40693;43.884;20.340;2023-02-23T06:05:31;105.72;;;64.07;;
54795;SDS011;40693;43.884;20.340;2023-02-23T06:08:05;132.45;;;76.28;;
54795;SDS011;40693;43.884;20.340;2023-02-23T06:10:33;136.32;;;72.85;;
54795;SDS011;40693;43.884;20.340;2023-02-23T06:12:59;135.35;;;78.05;;
54795;SDS011;40693;43.884;20.340;2023-02-23T06:15:24;146.80;;;83.32;;
54795;SDS011;40693;43.884;20.340;2023-02-23T06:17:51;123.70;;;71.40;;
54795;SDS011;40693;43.884;20.340;2023-02-23T06:20:17;114.50;;;71.47;;
54795;SDS011;40693;43.884;20.340;2023-02-23T06:22:43;129.65;;;73.22;;
54795;SDS011;40693;43.884;20.340;2023-02-23T06:25:09;121.10;;;73.82;;
54795;SDS011;40693;43.884;20.340;2023-02-23T06:27:37;112.10;;;68.60;;
54795;SDS011;40693;43.884;20.340;2023-02-23T06:30:04;109.45;;;63.92;;
54795;SDS011;40693;43.884;20.340;2023-02-23T06:32:30;107.25;;;64.75;;
54795;SDS011;40693;43.884;20.340;2023-02-23T06:34:56;102.38;;;59.78;;
54795;SDS011;40693;43.884;20.340;2023-02-23T06:37:22;103.13;;;63.97;;
54795;SDS011;40693;43.884;20.340;2023-02-23T06:39:48;93.40;;;58.78;;
54795;SDS011;40693;43.884;20.340;2023-02-23T06:42:14;98.95;;;62.00;;
54795;SDS011;40693;43.884;20.340;2023-02-23T06:44:40;103.55;;;58.80;;
54795;SDS011;40693;43.884;20.340;2023-02-23T06:47:06;97.45;;;61.42;;
54795;SDS011;40693;43.884;20.340;2023-02-23T06:49:33;94.93;;;59.95;;
54795;SDS011;40693;43.884;20.340;2023-02-23T06:51:58;89.60;;;55.38;;
54795;SDS011;40693;43.884;20.340;2023-02-23T06:54:24;51.75;;;34.78;;
54795;SDS011;40693;43.884;20.340;2023-02-23T06:56:50;45.75;;;30.75;;
54795;SDS011;40693;43.884;20.340;2023-02-23T06:59:17;44.35;;;29.77;;
54795;SDS011;40693;43.884;20.340;2023-02-23T07:01:43;45.55;;;31.83;;
54795;SDS011;40693;43.884;20.340;2023-02-23T07:04:11;41.78;;;32.53;;
54795;SDS011;40693;43.884;20.340;2023-02-23T07:06:37;57.65;;;33.95;;
54795;SDS011;40693;43.884;20.340;2023-02-23T07:09:03;52.70;;;32.20;;
54795;SDS011;40693;43.884;20.340;2023-02-23T07:11:30;65.90;;;42.13;;
54795;SDS011;40693;43.884;20.340;2023-02-23T07:13:59;54.80;;;34.80;;
54795;SDS011;40693;43.884;20.340;2023-02-23T07:16:29;58.17;;;40.00;;
54795;SDS011;40693;43.884;20.340;2023-02-23T07:18:54;50.50;;;34.28;;
54795;SDS011;40693;43.884;20.340;2023-02-23T07:21:20;47.97;;;32.15;;
54795;SDS011;40693;43.884;20.340;2023-02-23T07:23:47;53.30;;;34.75;;
54795;SDS011;40693;43.884;20.340;2023-02-23T07:26:13;50.50;;;31.98;;
54795;SDS011;40693;43.884;20.340;2023-02-23T07:28:42;39.17;;;25.58;;
54795;SDS011;40693;43.884;20.340;2023-02-23T07:31:08;42.83;;;27.95;;
54795;SDS011;40693;43.884;20.340;2023-02-23T07:33:35;39.00;;;26.92;;
54795;SDS011;40693;43.884;20.340;2023-02-23T07:36:01;47.28;;;30.48;;
54795;SDS011;40693;43.884;20.340;2023-02-23T07:38:28;50.10;;;33.33;;
54795;SDS011;40693;43.884;20.340;2023-02-23T07:40:54;47.50;;;35.15;;
54795;SDS011;40693;43.884;20.340;2023-02-23T07:43:20;54.88;;;35.28;;
54795;SDS011;40693;43.884;20.340;2023-02-23T07:45:46;55.13;;;35.72;;
54795;SDS011;40693;43.884;20.340;2023-02-23T07:48:13;52.85;;;33.17;;
54795;SDS011;40693;43.884;20.340;2023-02-23T07:50:39;49.45;;;31.77;;
54795;SDS011;40693;43.884;20.340;2023-02-23T07:53:09;54.35;;;34.17;;
54795;SDS011;40693;43.884;20.340;2023-02-23T07:55:35;57.05;;;35.65;;
54795;SDS011;40693;43.884;20.340;2023-02-23T07:58:04;55.40;;;36.30;;
54795;SDS011;40693;43.884;20.340;2023-02-23T08:00:31;48.78;;;36.38;;
54795;SDS011;40693;43.884;20.340;2023-02-23T08:02:57;45.58;;;31.38;;
54795;SDS011;40693;43.884;20.340;2023-02-23T08:05:24;44.45;;;30.20;;
54795;SDS011;40693;43.884;20.340;2023-02-23T08:07:50;44.15;;;31.55;;
54795;SDS011;40693;43.884;20.340;2023-02-23T08:10:16;50.53;;;29.77;;
54795;SDS011;40693;43.884;20.340;2023-02-23T08:12:42;48.35;;;30.90;;
54795;SDS011;40693;43.884;20.340;2023-02-23T08:15:08;49.17;;;31.75;;
54795;SDS011;40693;43.884;20.340;2023-02-23T08:17:41;46.55;;;31.08;;
54795;SDS011;40693;43.884;20.340;2023-02-23T08:20:13;44.03;;;30.52;;
54795;SDS011;40693;43.884;20.340;2023-02-23T08:22:41;36.65;;;25.73;;
54795;SDS011;40693;43.884;20.340;2023-02-23T08:25:07;47.10;;;29.00;;
54795;SDS011;40693;43.884;20.340;2023-02-23T08:27:34;44.65;;;27.58;;
54795;SDS011;40693;43.884;20.340;2023-02-23T08:30:01;41.60;;;26.80;;
54795;SDS011;40693;43.884;20.340;2023-02-23T08:32:31;41.30;;;27.55;;
54795;SDS011;40693;43.884;20.340;2023-02-23T08:34:59;44.17;;;30.92;;
54795;SDS011;40693;43.884;20.340;2023-02-23T08:37:42;44.85;;;28.77;;
54795;SDS011;40693;43.884;20.340;2023-02-23T08:40:25;51.42;;;32.55;;
54795;SDS011;40693;43.884;20.340;2023-02-23T08:46:08;49.42;;;30.30;;
54795;SDS011;40693;43.884;20.340;2023-02-23T08:48:36;48.40;;;32.42;;
54795;SDS011;40693;43.884;20.340;2023-02-23T08:51:04;48.03;;;32.45;;
54795;SDS011;40693;43.884;20.340;2023-02-23T08:53:31;40.10;;;29.13;;
54795;SDS011;40693;43.884;20.340;2023-02-23T08:55:57;44.35;;;28.33;;
54795;SDS011;40693;43.884;20.340;2023-02-23T08:58:25;47.88;;;32.70;;
54795;SDS011;40693;43.884;20.340;2023-02-23T09:00:52;52.65;;;35.67;;
54795;SDS011;40693;43.884;20.340;2023-02-23T09:03:18;44.55;;;30.85;;
54795;SDS011;40693;43.884;20.340;2023-02-23T09:05:45;68.03;;;42.40;;
54795;SDS011;40693;43.884;20.340;2023-02-23T09:08:12;54.60;;;38.50;;
54795;SDS011;40693;43.884;20.340;2023-02-23T09:10:44;60.83;;;40.50;;
54795;SDS011;40693;43.884;20.340;2023-02-23T09:13:10;63.85;;;37.63;;
54795;SDS011;40693;43.884;20.340;2023-02-23T09:15:37;58.63;;;36.97;;
54795;SDS011;40693;43.884;20.340;2023-02-23T09:18:05;52.05;;;36.55;;
54795;SDS011;40693;43.884;20.340;2023-02-23T09:20:32;55.85;;;35.15;;
54795;SDS011;40693;43.884;20.340;2023-02-23T09:22:58;57.72;;;37.00;;
54795;SDS011;40693;43.884;20.340;2023-02-23T09:25:24;63.83;;;40.70;;
54795;SDS011;40693;43.884;20.340;2023-02-23T09:27:51;74.47;;;47.63;;
54795;SDS011;40693;43.884;20.340;2023-02-23T09:30:18;54.58;;;37.72;;
54795;SDS011;40693;43.884;20.340;2023-02-23T09:32:51;57.88;;;37.92;;
54795;SDS011;40693;43.884;20.340;2023-02-23T09:35:19;57.80;;;42.05;;
54795;SDS011;40693;43.884;20.340;2023-02-23T09:37:47;61.70;;;43.40;;
54795;SDS011;40693;43.884;20.340;2023-02-23T09:40:21;52.45;;;36.85;;
54795;SDS011;40693;43.884;20.340;2023-02-23T09:43:03;60.90;;;38.00;;
54795;SDS011;40693;43.884;20.340;2023-02-23T09:45:47;58.10;;;40.20;;
54795;SDS011;40693;43.884;20.340;2023-02-23T09:48:32;47.70;;;33.58;;
54795;SDS011;40693;43.884;20.340;2023-02-23T09:50:59;50.80;;;35.97;;
54795;SDS011;40693;43.884;20.340;2023-02-23T09:53:28;61.50;;;38.90;;
54795;SDS011;40693;43.884;20.340;2023-02-23T09:56:10;61.10;;;41.85;;
54795;SDS011;40693;43.884;20.340;2023-02-23T09:58:36;63.00;;;41.15;;
54795;SDS011;40693;43.884;20.340;2023-02-23T10:01:15;56.53;;;40.60;;
54795;SDS011;40693;43.884;20.340;2023-02-23T10:22:06;30.00;;;21.38;;
54795;SDS011;40693;43.884;20.340;2023-02-23T10:24:39;28.52;;;21.52;;
54795;SDS011;40693;43.884;20.340;2023-02-23T10:27:09;23.80;;;16.63;;
54795;SDS011;40693;43.884;20.340;2023-02-23T10:29:51;28.20;;;21.38;;
54795;SDS011;40693;43.884;20.340;2023-02-23T10:35:31;34.42;;;24.88;;
54795;SDS011;40693;43.884;20.340;2023-02-23T10:37:59;25.73;;;18.92;;
54795;SDS011;40693;43.884;20.340;2023-02-23T10:40:26;20.90;;;15.05;;
54795;SDS011;40693;43.884;20.340;2023-02-23T10:43:01;27.23;;;18.90;;
54795;SDS011;40693;43.884;20.340;2023-02-23T10:45:36;27.83;;;19.92;;
54795;SDS011;40693;43.884;20.340;2023-02-23T10:48:16;33.38;;;23.52;;
54795;SDS011;40693;43.884;20.340;2023-02-23T10:50:43;25.27;;;19.30;;
54795;SDS011;40693;43.884;20.340;2023-02-23T10:53:18;29.02;;;21.00;;
54795;SDS011;40693;43.884;20.340;2023-02-23T10:58:58;27.83;;;20.48;;
54795;SDS011;40693;43.884;20.340;2023-02-23T11:01:36;30.17;;;21.45;;
54795;SDS011;40693;43.884;20.340;2023-02-23T11:04:23;32.38;;;20.05;;
54795;SDS011;40693;43.884;20.340;2023-02-23T11:09:49;23.45;;;18.98;;
54795;SDS011;40693;43.884;20.340;2023-02-23T11:12:21;31.92;;;21.75;;
54795;SDS011;40693;43.884;20.340;2023-02-23T11:14:57;34.10;;;23.83;;
54795;SDS011;40693;43.884;20.340;2023-02-23T11:17:41;26.45;;;19.45;;
54795;SDS011;40693;43.884;20.340;2023-02-23T11:26:05;21.95;;;16.08;;
54795;SDS011;40693;43.884;20.340;2023-02-23T11:28:47;32.55;;;19.95;;
54795;SDS011;40693;43.884;20.340;2023-02-23T11:31:30;21.20;;;16.42;;
54795;SDS011;40693;43.884;20.340;2023-02-23T11:33:58;22.27;;;16.60;;
54795;SDS011;40693;43.884;20.340;2023-02-23T11:36:27;21.75;;;16.30;;
54795;SDS011;40693;43.884;20.340;2023-02-23T11:38:59;22.38;;;14.43;;
54795;SDS011;40693;43.884;20.340;2023-02-23T11:41:25;31.38;;;19.92;;
54795;SDS011;40693;43.884;20.340;2023-02-23T11:43:55;16.15;;;12.82;;
54795;SDS011;40693;43.884;20.340;2023-02-23T11:46:25;22.83;;;14.98;;
54795;SDS011;40693;43.884;20.340;2023-02-23T11:49:03;37.92;;;23.40;;
54795;SDS011;40693;43.884;20.340;2023-02-23T11:51:39;49.17;;;33.28;;
54795;SDS011;40693;43.884;20.340;2023-02-23T11:54:35;26.63;;;17.67;;
54795;SDS011;40693;43.884;20.340;2023-02-23T11:57:11;30.90;;;19.88;;
54795;SDS011;40693;43.884;20.340;2023-02-23T11:59:51;52.85;;;23.73;;
54795;SDS011;40693;43.884;20.340;2023-02-23T12:05:27;77.15;;;45.60;;
54795;SDS011;40693;43.884;20.340;2023-02-23T12:07:58;258.42;;;125.03;;
54795;SDS011;40693;43.884;20.340;2023-02-23T12:10:57;45.75;;;36.65;;
54795;SDS011;40693;43.884;20.340;2023-02-23T12:13:34;20.80;;;17.05;;
54795;SDS011;40693;43.884;20.340;2023-02-23T12:18:49;20.13;;;14.90;;
54795;SDS011;40693;43.884;20.340;2023-02-23T12:26:33;23.15;;;16.33;;
54795;SDS011;40693;43.884;20.340;2023-02-23T12:29:41;33.85;;;22.75;;
54795;SDS011;40693;43.884;20.340;2023-02-23T12:32:17;25.35;;;16.15;;
54795;SDS011;40693;43.884;20.340;2023-02-23T12:37:40;22.63;;;17.35;;
54795;SDS011;40693;43.884;20.340;2023-02-23T12:40:22;22.05;;;16.13;;
54795;SDS011;40693;43.884;20.340;2023-02-23T12:43:01;19.73;;;13.38;;
54795;SDS011;40693;43.884;20.340;2023-02-23T12:45:50;23.40;;;16.42;;
54795;SDS011;40693;43.884;20.340;2023-02-23T12:48:21;20.08;;;17.15;;
54795;SDS011;40693;43.884;20.340;2023-02-23T12:51:00;20.55;;;14.50;;
54795;SDS011;40693;43.884;20.340;2023-02-23T12:53:37;20.67;;;13.57;;
54795;SDS011;40693;43.884;20.340;2023-02-23T12:56:11;25.40;;;17.38;;
54795;SDS011;40693;43.884;20.340;2023-02-23T13:01:18;23.92;;;17.30;;
54795;SDS011;40693;43.884;20.340;2023-02-23T13:07:04;17.58;;;13.57;;
54795;SDS011;40693;43.884;20.340;2023-02-23T13:09:52;20.20;;;13.60;;
54795;SDS011;40693;43.884;20.340;2023-02-23T13:20:29;47.80;;;29.63;;
54795;SDS011;40693;43.884;20.340;2023-02-23T13:23:07;48.97;;;35.78;;
54795;SDS011;40693;43.884;20.340;2023-02-23T13:31:23;31.73;;;24.05;;
54795;SDS011;40693;43.884;20.340;2023-02-23T13:33:49;30.77;;;24.20;;
54795;SDS011;40693;43.884;20.340;2023-02-23T13:36:17;40.17;;;26.27;;
54795;SDS011;40693;43.884;20.340;2023-02-23T13:52:41;26.73;;;20.33;;
54795;SDS011;40693;43.884;20.340;2023-02-23T13:57:53;38.08;;;23.30;;
54795;SDS011;40693;43.884;20.340;2023-02-23T14:00:27;56.00;;;33.22;;
54795;SDS011;40693;43.884;20.340;2023-02-23T14:02:53;34.90;;;24.88;;
54795;SDS011;40693;43.884;20.340;2023-02-23T14:05:23;81.95;;;50.92;;
54795;SDS011;40693;43.884;20.340;2023-02-23T14:07:57;32.00;;;22.60;;
54795;SDS011;40693;43.884;20.340;2023-02-23T14:10:39;27.02;;;20.73;;
54795;SDS011;40693;43.884;20.340;2023-02-23T14:15:42;24.50;;;18.97;;
54795;SDS011;40693;43.884;20.340;2023-02-23T14:18:31;35.63;;;22.73;;
54795;SDS011;40693;43.884;20.340;2023-02-23T14:29:10;44.58;;;29.70;;
54795;SDS011;40693;43.884;20.340;2023-02-23T14:37:48;35.58;;;24.40;;
54795;SDS011;40693;43.884;20.340;2023-02-23T14:40:32;57.05;;;37.30;;
54795;SDS011;40693;43.884;20.340;2023-02-23T14:46:15;42.85;;;31.50;;
54795;SDS011;40693;43.884;20.340;2023-02-23T14:48:54;33.95;;;24.13;;
54795;SDS011;40693;43.884;20.340;2023-02-23T14:51:44;44.97;;;30.88;;
54795;SDS011;40693;43.884;20.340;2023-02-23T14:54:21;45.10;;;33.05;;
54795;SDS011;40693;43.884;20.340;2023-02-23T14:56:55;117.55;;;101.95;;
54795;SDS011;40693;43.884;20.340;2023-02-23T14:59:26;57.10;;;49.70;;
54795;SDS011;40693;43.884;20.340;2023-02-23T15:02:16;42.08;;;34.05;;
54795;SDS011;40693;43.884;20.340;2023-02-23T15:04:46;31.35;;;22.73;;
54795;SDS011;40693;43.884;20.340;2023-02-23T15:07:17;39.45;;;30.00;;
54795;SDS011;40693;43.884;20.340;2023-02-23T15:09:52;38.38;;;26.10;;
54795;SDS011;40693;43.884;20.340;2023-02-23T15:12:20;49.35;;;32.67;;
54795;SDS011;40693;43.884;20.340;2023-02-23T15:15:00;57.28;;;32.65;;
54795;SDS011;40693;43.884;20.340;2023-02-23T15:17:30;55.47;;;35.83;;
54795;SDS011;40693;43.884;20.340;2023-02-23T15:20:05;59.28;;;35.97;;
54795;SDS011;40693;43.884;20.340;2023-02-23T15:22:37;58.00;;;35.15;;
54795;SDS011;40693;43.884;20.340;2023-02-23T15:25:11;40.53;;;27.55;;
54795;SDS011;40693;43.884;20.340;2023-02-23T15:27:41;44.58;;;29.50;;
54795;SDS011;40693;43.884;20.340;2023-02-23T15:30:23;52.38;;;32.63;;
54795;SDS011;40693;43.884;20.340;2023-02-23T15:33:00;39.08;;;26.98;;
54795;SDS011;40693;43.884;20.340;2023-02-23T15:35:28;50.85;;;33.10;;
54795;SDS011;40693;43.884;20.340;2023-02-23T15:38:01;60.85;;;39.83;;
54795;SDS011;40693;43.884;20.340;2023-02-23T15:40:32;95.30;;;58.75;;
54795;SDS011;40693;43.884;20.340;2023-02-23T15:43:16;62.28;;;42.72;;
54795;SDS011;40693;43.884;20.340;2023-02-23T15:45:43;42.05;;;28.48;;
54795;SDS011;40693;43.884;20.340;2023-02-23T15:48:15;52.28;;;33.30;;
54795;SDS011;40693;43.884;20.340;2023-02-23T15:50:48;42.20;;;30.33;;
54795;SDS011;40693;43.884;20.340;2023-02-23T15:56:03;57.53;;;37.00;;
54795;SDS011;40693;43.884;20.340;2023-02-23T15:58:37;39.97;;;29.92;;
54795;SDS011;40693;43.884;20.340;2023-02-23T16:01:08;64.25;;;40.33;;
54795;SDS011;40693;43.884;20.340;2023-02-23T16:03:35;67.80;;;42.95;;
54795;SDS011;40693;43.884;20.340;2023-02-23T16:06:53;75.60;;;48.10;;
54795;SDS011;40693;43.884;20.340;2023-02-23T16:11:51;87.30;;;56.65;;
54795;SDS011;40693;43.884;20.340;2023-02-23T16:14:18;102.45;;;64.13;;
54795;SDS011;40693;43.884;20.340;2023-02-23T16:16:46;116.18;;;72.80;;
54795;SDS011;40693;43.884;20.340;2023-02-23T16:19:16;138.38;;;84.65;;
54795;SDS011;40693;43.884;20.340;2023-02-23T16:21:48;130.40;;;78.85;;
54795;SDS011;40693;43.884;20.340;2023-02-23T16:24:22;132.95;;;85.07;;
54795;SDS011;40693;43.884;20.340;2023-02-23T16:26:54;110.43;;;73.20;;
54795;SDS011;40693;43.884;20.340;2023-02-23T16:29:42;113.20;;;72.93;;
54795;SDS011;40693;43.884;20.340;2023-02-23T16:32:17;104.45;;;69.55;;
54795;SDS011;40693;43.884;20.340;2023-02-23T16:35:32;118.20;;;80.22;;
54795;SDS011;40693;43.884;20.340;2023-02-23T16:40:19;145.50;;;91.40;;
54795;SDS011;40693;43.884;20.340;2023-02-23T16:42:47;138.43;;;90.72;;
54795;SDS011;40693;43.884;20.340;2023-02-23T16:45:13;135.52;;;85.40;;
54795;SDS011;40693;43.884;20.340;2023-02-23T16:47:44;113.07;;;77.40;;
54795;SDS011;40693;43.884;20.340;2023-02-23T16:50:18;146.23;;;95.88;;
54795;SDS011;40693;43.884;20.340;2023-02-23T16:52:47;120.25;;;82.07;;
54795;SDS011;40693;43.884;20.340;2023-02-23T16:55:20;111.55;;;74.18;;
54795;SDS011;40693;43.884;20.340;2023-02-23T16:57:52;101.38;;;70.60;;
54795;SDS011;40693;43.884;20.340;2023-02-23T17:00:24;77.90;;;55.15;;
54795;SDS011;40693;43.884;20.340;2023-02-23T17:02:52;83.45;;;55.13;;
54795;SDS011;40693;43.884;20.340;2023-02-23T17:05:20;103.97;;;64.68;;
54795;SDS011;40693;43.884;20.340;2023-02-23T17:07:50;186.02;;;118.28;;
54795;SDS011;40693;43.884;20.340;2023-02-23T17:10:24;143.52;;;94.38;;
54795;SDS011;40693;43.884;20.340;2023-02-23T17:15:29;312.10;;;184.45;;
54795;SDS011;40693;43.884;20.340;2023-02-23T17:18:03;426.63;;;259.40;;
54795;SDS011;40693;43.884;20.340;2023-02-23T17:20:30;248.00;;;159.00;;
54795;SDS011;40693;43.884;20.340;2023-02-23T17:23:02;290.40;;;184.73;;
54795;SDS011;40693;43.884;20.340;2023-02-23T17:25:28;228.88;;;147.63;;